createdAt,value
2023-09-12T00:02:22.716Z,99993.29
2023-09-12T00:04:53.341Z,99994.54
2023-09-12T00:07:24.036Z,99996.08
2023-09-12T00:09:54.745Z,99994.58
2023-09-12T00:12:26.930Z,99991.41
2023-09-12T00:14:57.845Z,99994.55
2023-09-12T00:17:29.056Z,99998.67
2023-09-12T00:19:59.790Z,99997.16
2023-09-12T00:22:30.490Z,99991.98
2023-09-12T00:25:01.712Z,99997.05
2023-09-12T00:27:32.527Z,99997.20
2023-09-12T00:30:03.927Z,99999.04
2023-09-12T00:32:34.759Z,99999.73
2023-09-12T00:35:05.938Z,99994.87
2023-09-12T00:37:36.718Z,99993.81
2023-09-12T00:40:09.509Z,99989.45
2023-09-12T00:42:40.176Z,99987.43
2023-09-12T00:45:12.266Z,99987.23
2023-09-12T00:47:43.186Z,99983.73
2023-09-12T00:50:15.443Z,99988.52
2023-09-12T00:52:47.285Z,99986.51
2023-09-12T00:55:18.708Z,99992.92
2023-09-12T00:57:49.902Z,99993.25
2023-09-12T01:00:20.931Z,99993.34
2023-09-12T01:02:54.422Z,99991.63
2023-09-12T01:05:26.282Z,99995.71
2023-09-12T01:07:57.683Z,99999.91
2023-09-12T01:10:28.788Z,99996.42
2023-09-12T01:12:59.520Z,99995.96
2023-09-12T01:15:30.264Z,99996.08
2023-09-12T01:18:01.784Z,99991.27
2023-09-12T01:20:36.274Z,99994.16
2023-09-12T01:23:31.978Z,99998.45
2023-09-12T01:26:27.852Z,99999.47
2023-09-12T01:29:01.671Z,100002.23
2023-09-12T01:31:34.302Z,100003.86
2023-09-12T01:34:13.625Z,100000.20
2023-09-12T01:36:44.329Z,100001.93
2023-09-12T01:39:15.238Z,100002.48
2023-09-12T01:41:49.914Z,99997.52
2023-09-12T01:44:24.189Z,99999.71
2023-09-12T01:46:55.759Z,100000.71
2023-09-12T01:49:29.149Z,100001.86
2023-09-12T01:52:00.980Z,99999.19
2023-09-12T01:54:32.604Z,99998.98
2023-09-12T01:57:04.860Z,100001.64
2023-09-12T01:59:35.769Z,100004.50
2023-09-12T02:02:08.102Z,100002.48
2023-09-12T02:04:38.839Z,100004.45
2023-09-12T02:07:09.443Z,100003.89
2023-09-12T02:09:40.131Z,100008.95
2023-09-12T02:12:11.245Z,100008.23
2023-09-12T02:14:42.065Z,100007.28
2023-09-12T02:17:12.952Z,100006.86
2023-09-12T02:19:43.737Z,100006.45
2023-09-12T02:22:14.401Z,100004.29
2023-09-12T02:24:45.045Z,100002.67
2023-09-12T02:27:15.721Z,100002.22
2023-09-12T02:29:46.513Z,100004.17
2023-09-12T02:32:17.286Z,100000.38
2023-09-12T02:34:48.188Z,100004.06
2023-09-12T02:37:18.773Z,100006.46
2023-09-12T02:39:49.508Z,100006.04
2023-09-12T02:42:20.215Z,100004.94
2023-09-12T02:44:50.976Z,100006.41
2023-09-12T02:47:21.610Z,100010.63
2023-09-12T02:49:52.245Z,100013.39
2023-09-12T02:52:23.294Z,100011.23
2023-09-12T02:54:54.005Z,100015.43
2023-09-12T02:57:25.368Z,100013.33
2023-09-12T02:59:56.105Z,100009.40
2023-09-12T03:02:26.981Z,100008.19
2023-09-12T03:04:57.972Z,100012.92
2023-09-12T03:07:28.967Z,100012.46
2023-09-12T03:09:59.808Z,100013.31
2023-09-12T03:12:30.501Z,100015.84
2023-09-12T03:15:01.376Z,100014.05
2023-09-12T03:17:33.260Z,100011.41
2023-09-12T03:20:07.468Z,100009.83
2023-09-12T03:22:39.352Z,100007.73
2023-09-12T03:25:11.250Z,100007.08
2023-09-12T03:27:42.048Z,100003.34
2023-09-12T03:30:14.633Z,100004.65
2023-09-12T03:32:45.573Z,99997.23
2023-09-12T03:35:16.611Z,99997.79
2023-09-12T03:37:47.214Z,99998.38
2023-09-12T03:40:18.322Z,100000.94
2023-09-12T03:42:49.181Z,100000.98
2023-09-12T03:45:20.777Z,99998.21
2023-09-12T03:47:51.524Z,99997.20
2023-09-12T03:50:22.383Z,99995.52
2023-09-12T03:52:53.153Z,99991.95
2023-09-12T03:55:23.947Z,99994.84
2023-09-12T03:57:54.530Z,99995.69
2023-09-12T04:00:25.654Z,99995.21
2023-09-12T04:02:56.353Z,99998.28
2023-09-12T04:05:27.719Z,100000.23
2023-09-12T04:07:58.420Z,100012.13
2023-09-12T04:10:29.435Z,100011.52
2023-09-12T04:13:00.229Z,100008.59
2023-09-12T04:15:31.168Z,100005.68
2023-09-12T04:18:02.298Z,100007.29
2023-09-12T04:20:33.529Z,100008.20
2023-09-12T04:23:06.019Z,100009.87
2023-09-12T04:25:36.985Z,100006.71
2023-09-12T04:28:08.913Z,100008.85
2023-09-12T04:30:40.956Z,100008.85
2023-09-12T04:33:10.223Z,100008.95
2023-09-12T04:35:40.848Z,100011.11
2023-09-12T04:38:11.550Z,100007.86
2023-09-12T04:40:43.200Z,100008.52
2023-09-12T04:43:13.849Z,100002.19
2023-09-12T04:45:44.597Z,100003.73
2023-09-12T04:48:15.435Z,100006.01
2023-09-12T04:50:47.022Z,100005.40
2023-09-12T04:53:16.860Z,100002.77
2023-09-12T04:55:47.812Z,100003.30
2023-09-12T04:58:18.472Z,100001.76
2023-09-12T05:00:49.779Z,100003.61
2023-09-12T05:03:20.628Z,100003.83
2023-09-12T05:05:52.312Z,100001.16
2023-09-12T05:08:23.781Z,100004.12
2023-09-12T05:10:54.569Z,100005.86
2023-09-12T05:13:25.907Z,100004.02
2023-09-12T05:15:57.042Z,100004.45
2023-09-12T05:18:28.743Z,100003.05
2023-09-12T05:20:59.646Z,100002.23
2023-09-12T05:23:30.480Z,100003.46
2023-09-12T05:26:02.056Z,100001.80
2023-09-12T05:28:32.676Z,100004.98
2023-09-12T05:31:04.374Z,100003.63
2023-09-12T05:33:36.742Z,100005.23
2023-09-12T05:36:08.439Z,100006.45
2023-09-12T05:38:39.204Z,100013.34
2023-09-12T05:41:09.869Z,100010.53
2023-09-12T05:43:40.847Z,100012.62
2023-09-12T05:46:11.585Z,100013.76
2023-09-12T05:48:42.712Z,100018.69
2023-09-12T05:51:13.811Z,100015.88
2023-09-12T05:53:44.693Z,100017.40
2023-09-12T05:56:15.321Z,100019.05
2023-09-12T05:58:46.071Z,100024.00
2023-09-12T06:01:16.863Z,100030.32
2023-09-12T06:03:47.869Z,100029.77
2023-09-12T06:06:19.160Z,100034.08
2023-09-12T06:08:49.805Z,100038.35
2023-09-12T06:11:20.569Z,100037.03
2023-09-12T06:13:51.306Z,100032.63
2023-09-12T06:16:22.045Z,100028.98
2023-09-12T06:18:54.865Z,100032.06
2023-09-12T06:21:25.657Z,100033.41
2023-09-12T06:24:12.692Z,100032.41
2023-09-12T06:26:44.038Z,100033.48
2023-09-12T06:29:15.495Z,100035.81
2023-09-12T06:31:46.198Z,100039.41
2023-09-12T06:34:19.984Z,100041.29
2023-09-12T06:36:50.848Z,100045.73
2023-09-12T06:39:21.776Z,100043.64
2023-09-12T06:41:52.581Z,100046.20
2023-09-12T06:44:23.275Z,100042.07
2023-09-12T06:46:54.147Z,100042.44
2023-09-12T06:49:25.141Z,100040.75
2023-09-12T06:51:55.976Z,100039.86
2023-09-12T06:54:26.658Z,100038.66
2023-09-12T06:56:57.391Z,100045.73
2023-09-12T06:59:28.205Z,100046.55
2023-09-12T07:01:58.949Z,100046.19
2023-09-12T07:04:29.789Z,100042.05
2023-09-12T07:07:00.642Z,100041.04
2023-09-12T07:09:31.437Z,100037.98
2023-09-12T07:12:02.323Z,100039.94
2023-09-12T07:14:32.979Z,100046.98
2023-09-12T07:17:03.868Z,100039.05
2023-09-12T07:19:34.509Z,100044.98
2023-09-12T07:22:05.839Z,100033.58
2023-09-12T07:24:36.669Z,100043.95
2023-09-12T07:27:08.098Z,100041.51
2023-09-12T07:29:40.268Z,100045.21
2023-09-12T07:32:11.267Z,100043.92
2023-09-12T07:34:44.221Z,100045.64
2023-09-12T07:37:14.821Z,100047.34
2023-09-12T07:39:45.582Z,100043.71
2023-09-12T07:42:16.352Z,100039.83
2023-09-12T07:45:08.149Z,100039.44
2023-09-12T07:47:38.855Z,100035.90
2023-09-12T07:50:11.248Z,100039.92
2023-09-12T07:52:42.017Z,100038.00
2023-09-12T07:55:13.462Z,100041.83
2023-09-12T07:57:56.409Z,100042.13
2023-09-12T08:00:27.728Z,100040.05
2023-09-12T08:02:58.553Z,100039.67
2023-09-12T08:05:29.319Z,100035.84
2023-09-12T08:08:00.187Z,100040.50
2023-09-12T08:10:31.369Z,100036.67
2023-09-12T08:13:02.380Z,100036.82
2023-09-12T08:15:33.054Z,100036.97
2023-09-12T08:18:04.100Z,100040.78
2023-09-12T08:20:34.959Z,100040.55
2023-09-12T08:23:05.874Z,100040.00
2023-09-12T08:25:36.742Z,100039.84
2023-09-12T08:28:08.114Z,100038.98
2023-09-12T08:30:38.850Z,100041.60
2023-09-12T08:33:09.643Z,100036.05
2023-09-12T08:35:40.354Z,100039.16
2023-09-12T08:38:11.490Z,100042.75
2023-09-12T08:40:43.329Z,100042.09
2023-09-12T08:43:14.158Z,100045.26
2023-09-12T08:45:46.006Z,100043.42
2023-09-12T08:48:17.848Z,100041.02
2023-09-12T08:50:51.883Z,100043.33
2023-09-12T08:53:23.778Z,100038.61
2023-09-12T08:55:55.707Z,100037.38
2023-09-12T08:58:26.957Z,100034.81
2023-09-12T09:00:58.133Z,100038.52
2023-09-12T09:03:29.301Z,100031.75
2023-09-12T09:06:02.577Z,100026.23
2023-09-12T09:08:33.843Z,100025.09
2023-09-12T09:11:06.937Z,100021.86
2023-09-12T09:13:37.609Z,100022.34
2023-09-12T09:16:16.140Z,100021.45
2023-09-12T09:18:58.904Z,100018.75
2023-09-12T09:21:32.009Z,100017.96
2023-09-12T09:24:04.813Z,100014.20
2023-09-12T09:26:47.100Z,100013.80
2023-09-12T09:29:20.105Z,100007.45
2023-09-12T09:31:52.606Z,100007.39
2023-09-12T09:34:25.261Z,100005.30
2023-09-12T09:36:58.012Z,100008.91
2023-09-12T09:39:30.527Z,100007.23
2023-09-12T09:42:01.672Z,100005.16
2023-09-12T09:44:33.339Z,100005.54
2023-09-12T09:47:07.386Z,100000.52
2023-09-12T09:49:38.655Z,100001.13
2023-09-12T09:52:09.906Z,99995.23
2023-09-12T09:54:47.644Z,99993.64
2023-09-12T09:57:18.601Z,99993.58
2023-09-12T09:59:52.861Z,99999.43
2023-09-12T10:02:28.061Z,99997.69
2023-09-12T10:05:01.408Z,99996.58
2023-09-12T10:07:35.520Z,99996.91
2023-09-12T10:10:07.899Z,99998.61
2023-09-12T10:12:47.160Z,99999.75
2023-09-12T10:15:23.534Z,99995.59
2023-09-12T10:18:00.937Z,99999.73
2023-09-12T10:20:39.936Z,99997.95
2023-09-12T10:23:14.350Z,100001.95
2023-09-12T10:25:47.505Z,100000.00
2023-09-12T10:28:19.641Z,100000.33
2023-09-12T10:30:51.777Z,100001.45
2023-09-12T10:33:23.353Z,100000.06
2023-09-12T10:35:54.713Z,99998.37
2023-09-12T10:38:28.653Z,99996.35
2023-09-12T10:41:01.173Z,99994.89
2023-09-12T10:43:34.898Z,99994.30
2023-09-12T10:46:06.116Z,99997.87
2023-09-12T10:48:38.669Z,99994.88
2023-09-12T10:51:10.985Z,99990.26
2023-09-12T10:53:47.211Z,99990.17
2023-09-12T10:56:30.551Z,99988.81
2023-09-12T10:59:17.827Z,99988.70
2023-09-12T11:01:49.868Z,99989.21
2023-09-12T11:04:38.838Z,99989.77
2023-09-12T11:07:46.170Z,99988.15
2023-09-12T11:10:27.072Z,99986.85
2023-09-12T11:12:59.097Z,99986.20
2023-09-12T11:15:32.494Z,99984.34
2023-09-12T11:18:07.944Z,99980.13
2023-09-12T11:21:04.630Z,99977.13
2023-09-12T11:23:36.925Z,99979.23
2023-09-12T11:26:08.950Z,99977.61
2023-09-12T11:28:40.625Z,99967.65
2023-09-12T11:31:12.291Z,99963.73
2023-09-12T11:33:44.673Z,99963.83
2023-09-12T11:36:20.867Z,99960.98
2023-09-12T11:38:54.114Z,99954.96
2023-09-12T11:41:44.501Z,99956.76
2023-09-12T11:44:16.148Z,99953.35
2023-09-12T11:46:49.829Z,99950.35
2023-09-12T11:49:22.032Z,99945.73
2023-09-12T11:51:54.769Z,99943.63
2023-09-12T11:54:33.103Z,99944.27
2023-09-12T11:57:05.625Z,99943.71
2023-09-12T11:59:38.928Z,99942.17
2023-09-12T12:02:12.248Z,99944.75
2023-09-12T12:04:43.459Z,99939.16
2023-09-12T12:07:15.100Z,99935.67
2023-09-12T12:09:46.102Z,99938.04
2023-09-12T12:12:17.888Z,99933.58
2023-09-12T12:14:48.710Z,99932.92
2023-09-12T12:17:19.416Z,99933.97
2023-09-12T12:19:50.902Z,99929.36
2023-09-12T12:22:22.001Z,99927.00
2023-09-12T12:24:53.668Z,99921.57
2023-09-12T12:27:24.427Z,99927.21
2023-09-12T12:29:55.646Z,99925.42
2023-09-12T12:32:26.809Z,99919.98
2023-09-12T12:35:43.792Z,99916.82
2023-09-12T12:37:53.665Z,99917.55
2023-09-12T12:40:34.311Z,99912.77
2023-09-12T12:43:18.071Z,99911.23
2023-09-12T12:46:00.644Z,99907.80
2023-09-12T12:48:35.750Z,99902.22
2023-09-12T12:51:19.457Z,99901.23
2023-09-12T12:53:53.480Z,99901.96
2023-09-12T12:56:31.171Z,99903.34
2023-09-12T12:59:07.900Z,99899.77
2023-09-12T13:01:40.839Z,99898.56
2023-09-12T13:04:12.050Z,99895.48
2023-09-12T13:06:43.674Z,99893.20
2023-09-12T13:09:13.673Z,99891.02
2023-09-12T13:11:43.689Z,99891.23
2023-09-12T13:14:14.452Z,99889.36
2023-09-12T13:16:45.218Z,99884.95
2023-09-12T13:19:15.960Z,99888.52
2023-09-12T13:21:46.822Z,99889.55
2023-09-12T13:24:17.558Z,99887.70
2023-09-12T13:26:48.507Z,99880.23
2023-09-12T13:29:19.328Z,99884.20
2023-09-12T13:31:50.239Z,99880.55
2023-09-12T13:34:21.449Z,99881.75
2023-09-12T13:37:05.805Z,99882.80
2023-09-12T13:39:41.327Z,99876.83
2023-09-12T13:42:12.060Z,99873.01
2023-09-12T13:44:42.967Z,99868.15
2023-09-12T13:47:13.706Z,99870.27
2023-09-12T13:49:44.472Z,99868.16
2023-09-12T13:52:16.106Z,99870.91
2023-09-12T13:54:45.348Z,99870.42
2023-09-12T13:57:16.228Z,99868.23
2023-09-12T13:59:47.159Z,99868.48
2023-09-12T14:02:19.811Z,99865.89
2023-09-12T14:05:00.889Z,99865.39
2023-09-12T14:07:38.173Z,99864.89
2023-09-12T14:10:12.656Z,99858.87
2023-09-12T14:12:48.040Z,99859.73
2023-09-12T14:15:18.969Z,99860.86
2023-09-12T14:17:56.299Z,99861.27
2023-09-12T14:20:28.245Z,99863.02
2023-09-12T14:22:59.496Z,99861.57
2023-09-12T14:25:30.469Z,99860.35
2023-09-12T14:28:01.554Z,99851.66
2023-09-12T14:30:36.436Z,99854.02
2023-09-12T14:33:08.302Z,99852.07
2023-09-12T14:35:39.179Z,99852.85
2023-09-12T14:38:09.981Z,99857.92
2023-09-12T14:40:44.134Z,99852.64
2023-09-12T14:43:16.463Z,99854.16
2023-09-12T14:45:47.655Z,99855.30
2023-09-12T14:48:18.721Z,99854.46
2023-09-12T14:50:50.378Z,99856.23
2023-09-12T14:53:19.973Z,99856.21
2023-09-12T14:55:50.690Z,99858.45
2023-09-12T14:58:21.566Z,99853.30
2023-09-12T15:00:56.550Z,99861.63
2023-09-12T15:03:30.616Z,99862.02
2023-09-12T15:06:01.573Z,99866.18
2023-09-12T15:08:32.364Z,99868.73
2023-09-12T15:11:03.063Z,99866.52
2023-09-12T15:13:33.778Z,99865.20
2023-09-12T15:16:05.381Z,99864.04
2023-09-12T15:18:38.420Z,99863.71
2023-09-12T15:21:09.247Z,99866.99
2023-09-12T15:23:40.212Z,99863.84
2023-09-12T15:26:11.102Z,99861.68
2023-09-12T15:28:41.928Z,99867.03
2023-09-12T15:31:13.012Z,99866.11
2023-09-12T15:33:46.226Z,99866.09
2023-09-12T15:36:17.148Z,99862.70
2023-09-12T15:38:47.852Z,99860.75
2023-09-12T15:41:26.679Z,99857.96
2023-09-12T15:44:12.604Z,99860.19
2023-09-12T15:46:49.266Z,99861.45
2023-09-12T15:49:20.360Z,99859.01
2023-09-12T15:51:51.695Z,99851.89
2023-09-12T15:54:22.394Z,99853.99
2023-09-12T15:56:53.495Z,99852.11
2023-09-12T15:59:26.454Z,99850.16
2023-09-12T16:01:57.524Z,99845.88
2023-09-12T16:04:28.602Z,99844.19
2023-09-12T16:06:59.538Z,99845.80
2023-09-12T16:09:30.401Z,99846.52
2023-09-12T16:12:01.203Z,99849.31
2023-09-12T16:14:32.054Z,99850.83
2023-09-12T16:17:03.435Z,99854.21
2023-09-12T16:19:34.547Z,99854.36
2023-09-12T16:22:07.038Z,99856.13
2023-09-12T16:24:38.801Z,99855.55
2023-09-12T16:27:10.289Z,99853.58
2023-09-12T16:29:41.130Z,99854.77
2023-09-12T16:32:11.987Z,99856.32
2023-09-12T16:34:43.230Z,99852.80
2023-09-12T16:37:14.151Z,99852.52
2023-09-12T16:39:44.879Z,99846.38
2023-09-12T16:42:15.743Z,99845.70
2023-09-12T16:44:46.589Z,99840.35
2023-09-12T16:47:17.518Z,99843.35
2023-09-12T16:49:49.474Z,99841.85
2023-09-12T16:52:20.235Z,99840.02
2023-09-12T16:54:51.357Z,99840.85
2023-09-12T16:57:25.215Z,99848.77
2023-09-12T16:59:55.967Z,99847.05
2023-09-12T17:02:27.368Z,99846.39
2023-09-12T17:04:58.346Z,99846.92
2023-09-12T17:07:29.571Z,99849.05
2023-09-12T17:10:00.508Z,99844.13
2023-09-12T17:12:31.523Z,99843.83
2023-09-12T17:15:03.405Z,99850.95
2023-09-12T17:17:33.064Z,99848.89
2023-09-12T17:20:04.322Z,99853.13
2023-09-12T17:22:35.088Z,99854.56
2023-09-12T17:25:06.770Z,99853.91
2023-09-12T17:27:38.690Z,99858.64
2023-09-12T17:30:12.111Z,99855.44
2023-09-12T17:32:42.812Z,99859.98
2023-09-12T17:35:14.540Z,99861.14
2023-09-12T17:37:48.847Z,99857.58
2023-09-12T17:40:20.078Z,99854.52
2023-09-12T17:42:50.808Z,99855.14
2023-09-12T17:45:21.773Z,99858.33
2023-09-12T17:47:54.461Z,99857.37
2023-09-12T17:50:26.678Z,99856.91
2023-09-12T17:53:03.842Z,99852.73
2023-09-12T17:55:35.543Z,99851.48
2023-09-12T17:58:06.597Z,99853.90
2023-09-12T18:00:38.007Z,99855.67
2023-09-12T18:03:09.366Z,99852.69
2023-09-12T18:05:40.249Z,99846.19
2023-09-12T18:08:11.239Z,99844.67
2023-09-12T18:10:41.888Z,99841.73
2023-09-12T18:13:12.764Z,99838.55
2023-09-12T18:15:43.570Z,99842.14
2023-09-12T18:18:14.316Z,99842.79
2023-09-12T18:20:45.536Z,99843.14
2023-09-12T18:23:17.645Z,99845.40
2023-09-12T18:25:48.486Z,99849.97
2023-09-12T18:28:40.352Z,99850.80
2023-09-12T18:31:11.933Z,99848.63
2023-09-12T18:33:43.401Z,99850.23
2023-09-12T18:36:15.005Z,99853.11
2023-09-12T18:38:46.612Z,99859.60
2023-09-12T18:41:17.709Z,99862.52
2023-09-12T18:43:48.494Z,99863.21
2023-09-12T18:46:19.348Z,99869.34
2023-09-12T18:48:50.292Z,99870.04
2023-09-12T18:51:20.889Z,99875.54
2023-09-12T18:53:51.778Z,99875.59
2023-09-12T18:56:22.698Z,99874.40
2023-09-12T18:58:53.417Z,99875.52
2023-09-12T19:01:24.270Z,99878.79
2023-09-12T19:03:55.293Z,99879.86
2023-09-12T19:06:26.065Z,99883.11
2023-09-12T19:08:56.772Z,99883.25
2023-09-12T19:11:27.524Z,99889.08
2023-09-12T19:13:58.279Z,99892.79
2023-09-12T19:16:29.447Z,99895.92
2023-09-12T19:19:00.578Z,99896.44
2023-09-12T19:21:31.949Z,99895.80
2023-09-12T19:24:02.737Z,99897.48
2023-09-12T19:26:34.969Z,99898.69
2023-09-12T19:29:06.392Z,99904.63
2023-09-12T19:34:09.186Z,99906.44
2023-09-12T19:36:40.378Z,99910.20
2023-09-12T19:39:11.302Z,99911.56
2023-09-12T19:41:42.066Z,99913.80
2023-09-12T19:44:12.771Z,99912.95
2023-09-12T19:46:44.308Z,99911.55
2023-09-12T19:49:15.251Z,99913.84
2023-09-12T19:51:46.812Z,99911.07
2023-09-12T19:54:19.349Z,99912.23
2023-09-12T19:56:50.194Z,99905.46
2023-09-12T19:59:20.899Z,99905.84
2023-09-12T20:01:52.722Z,99902.98
2023-09-12T20:04:23.814Z,99904.86
2023-09-12T20:06:54.608Z,99906.36
2023-09-12T20:09:25.567Z,99909.27
2023-09-12T20:11:57.013Z,99908.81
2023-09-12T20:14:27.680Z,99911.42
2023-09-12T20:16:58.483Z,99911.05
2023-09-12T20:19:29.182Z,99912.15
2023-09-12T20:21:59.925Z,99908.34
2023-09-12T20:24:30.753Z,99908.64
2023-09-12T20:27:01.482Z,99909.83
2023-09-12T20:29:32.373Z,99904.63
2023-09-12T20:32:03.228Z,99902.96
2023-09-12T20:34:34.035Z,99904.63
2023-09-12T20:37:05.398Z,99902.44
2023-09-12T20:39:36.308Z,99903.80
2023-09-12T20:42:07.941Z,99901.92
2023-09-12T20:44:38.812Z,99900.02
2023-09-12T20:47:09.629Z,99901.34
2023-09-12T20:49:42.905Z,99904.94
2023-09-12T20:52:13.773Z,99905.35
2023-09-12T20:54:44.543Z,99906.95
2023-09-12T20:57:15.416Z,99903.83
2023-09-12T20:59:46.076Z,99905.65
2023-09-12T21:02:16.874Z,99905.36
2023-09-12T21:04:47.665Z,99899.77
2023-09-12T21:07:18.343Z,99898.05
2023-09-12T21:09:49.005Z,99897.83
2023-09-12T21:12:19.919Z,99897.96
2023-09-12T21:14:50.671Z,99895.77
2023-09-12T21:17:23.170Z,99901.80
2023-09-12T21:19:53.962Z,99903.64
2023-09-12T21:22:24.651Z,99899.79
2023-09-12T21:24:55.637Z,99900.66
2023-09-12T21:27:26.946Z,99898.73
2023-09-12T21:29:57.848Z,99900.38
2023-09-12T21:32:28.829Z,99899.58
2023-09-12T21:35:15.944Z,99898.27
2023-09-12T21:37:47.592Z,99895.11
2023-09-12T21:40:19.216Z,99891.19
2023-09-12T21:42:50.477Z,99891.42
2023-09-12T21:45:21.571Z,99892.50
2023-09-12T21:47:52.502Z,99891.44
2023-09-12T21:50:24.025Z,99884.54
2023-09-12T21:52:54.719Z,99884.18
2023-09-12T21:55:25.919Z,99879.73
2023-09-12T21:57:56.678Z,99870.02
2023-09-12T22:00:29.798Z,99871.28
2023-09-12T22:03:01.003Z,99869.11
2023-09-12T22:05:31.915Z,99867.90
2023-09-12T22:08:02.602Z,99866.34
2023-09-12T22:10:34.916Z,99866.20
2023-09-12T22:13:06.078Z,99866.70
2023-09-12T22:15:41.820Z,99865.81
2023-09-12T22:18:12.684Z,99871.87
2023-09-12T22:20:43.389Z,99873.72
2023-09-12T22:23:14.180Z,99875.66
2023-09-12T22:25:44.830Z,99876.89
2023-09-12T22:28:15.647Z,99880.67
2023-09-12T22:30:46.408Z,99882.08
2023-09-12T22:33:17.101Z,99884.23
2023-09-12T22:36:08.424Z,99883.48
2023-09-12T22:38:46.296Z,99887.05
2023-09-12T22:41:16.960Z,99889.15
2023-09-12T22:43:47.730Z,99889.74
2023-09-12T22:46:18.454Z,99890.74
2023-09-12T22:48:49.223Z,99886.36
2023-09-12T22:51:19.845Z,99874.68
2023-09-12T22:53:50.627Z,99862.55
2023-09-12T22:56:21.249Z,99862.15
2023-09-12T22:58:52.294Z,99857.77
2023-09-12T23:01:23.552Z,99850.80
2023-09-12T23:03:54.714Z,99848.94
2023-09-12T23:06:25.421Z,99844.86
2023-09-12T23:08:56.103Z,99849.66
2023-09-12T23:11:26.799Z,99851.82
2023-09-12T23:13:58.004Z,99850.23
2023-09-12T23:16:28.690Z,99853.30
2023-09-12T23:18:59.423Z,99854.45
2023-09-12T23:21:31.027Z,99859.92
2023-09-12T23:24:01.814Z,99854.84
2023-09-12T23:26:32.433Z,99855.71
2023-09-12T23:29:03.895Z,99856.21
2023-09-12T23:31:34.667Z,99857.88
2023-09-12T23:34:06.015Z,99852.98
2023-09-12T23:36:36.772Z,99846.98
2023-09-12T23:39:07.804Z,99843.24
2023-09-12T23:41:38.895Z,99842.27
2023-09-12T23:44:09.682Z,99842.42
2023-09-12T23:46:40.591Z,99842.55
2023-09-12T23:49:11.503Z,99838.52
2023-09-12T23:51:42.992Z,99833.59
2023-09-12T23:54:13.724Z,99830.40
2023-09-12T23:56:44.424Z,99828.95
2023-09-12T23:59:15.961Z,99828.73
